sensor_id;sensor_type;location;lat;lon;timestamp;temperature;humidity
17859;DHT22;35426;30.698;104.050;2023-03-03T00:02:17;11.70;99.90
17859;DHT22;35426;30.698;104.050;2023-03-03T00:04:53;11.80;99.90
17859;DHT22;35426;30.698;104.050;2023-03-03T00:07:30;11.80;99.90
17859;DHT22;35426;30.698;104.050;2023-03-03T00:10:09;12.10;99.90
17859;DHT22;35426;30.698;104.050;2023-03-03T00:12:48;12.20;99.90
17859;DHT22;35426;30.698;104.050;2023-03-03T00:15:26;12.20;99.90
17859;DHT22;35426;30.698;104.050;2023-03-03T00:18:02;12.40;99.90
17859;DHT22;35426;30.698;104.050;2023-03-03T00:20:52;12.60;99.90
17859;DHT22;35426;30.698;104.050;2023-03-03T00:23:36;12.70;99.90
17859;DHT22;35426;30.698;104.050;2023-03-03T00:26:20;12.90;99.90
17859;DHT22;35426;30.698;104.050;2023-03-03T00:28:57;13.00;99.90
17859;DHT22;35426;30.698;104.050;2023-03-03T00:31:34;13.10;99.90
17859;DHT22;35426;30.698;104.050;2023-03-03T00:34:23;13.10;99.90
17859;DHT22;35426;30.698;104.050;2023-03-03T00:36:59;13.40;99.90
17859;DHT22;35426;30.698;104.050;2023-03-03T00:39:37;13.60;99.90
17859;DHT22;35426;30.698;104.050;2023-03-03T00:42:19;13.70;99.90
17859;DHT22;35426;30.698;104.050;2023-03-03T00:44:58;13.90;99.90
17859;DHT22;35426;30.698;104.050;2023-03-03T00:47:37;14.20;99.90
17859;DHT22;35426;30.698;104.050;2023-03-03T00:50:29;14.50;99.90
17859;DHT22;35426;30.698;104.050;2023-03-03T00:53:13;14.70;99.90
17859;DHT22;35426;30.698;104.050;2023-03-03T00:55:57;15.00;99.90
17859;DHT22;35426;30.698;104.050;2023-03-03T00:58:36;15.00;99.90
17859;DHT22;35426;30.698;104.050;2023-03-03T01:01:16;15.20;99.90
17859;DHT22;35426;30.698;104.050;2023-03-03T01:03:56;15.80;99.90
17859;DHT22;35426;30.698;104.050;2023-03-03T01:06:33;15.90;99.90
17859;DHT22;35426;30.698;104.050;2023-03-03T01:09:10;16.00;99.90
17859;DHT22;35426;30.698;104.050;2023-03-03T01:11:46;16.10;99.90
17859;DHT22;35426;30.698;104.050;2023-03-03T01:14:29;16.30;99.90
17859;DHT22;35426;30.698;104.050;2023-03-03T01:17:08;16.60;99.90
17859;DHT22;35426;30.698;104.050;2023-03-03T01:19:44;16.80;99.90
17859;DHT22;35426;30.698;104.050;2023-03-03T01:22:24;16.80;99.90
17859;DHT22;35426;30.698;104.050;2023-03-03T01:25:00;17.00;99.90
17859;DHT22;35426;30.698;104.050;2023-03-03T01:27:40;17.10;99.90
17859;DHT22;35426;30.698;104.050;2023-03-03T01:30:18;16.90;99.90
17859;DHT22;35426;30.698;104.050;2023-03-03T01:32:58;17.20;99.90
17859;DHT22;35426;30.698;104.050;2023-03-03T01:35:41;17.50;99.90
17859;DHT22;35426;30.698;104.050;2023-03-03T01:38:18;18.00;99.90
17859;DHT22;35426;30.698;104.050;2023-03-03T01:40:56;18.00;99.90
17859;DHT22;35426;30.698;104.050;2023-03-03T01:43:44;18.40;99.90
17859;DHT22;35426;30.698;104.050;2023-03-03T01:46:36;18.40;99.90
17859;DHT22;35426;30.698;104.050;2023-03-03T01:49:17;19.00;99.90
17859;DHT22;35426;30.698;104.050;2023-03-03T01:51:56;18.90;99.90
17859;DHT22;35426;30.698;104.050;2023-03-03T01:54:39;19.30;99.90
17859;DHT22;35426;30.698;104.050;2023-03-03T01:57:18;19.40;99.90
17859;DHT22;35426;30.698;104.050;2023-03-03T01:59:57;19.20;99.90
17859;DHT22;35426;30.698;104.050;2023-03-03T02:02:45;19.10;99.90
17859;DHT22;35426;30.698;104.050;2023-03-03T02:05:23;19.50;99.90
17859;DHT22;35426;30.698;104.050;2023-03-03T02:08:00;19.60;99.90
17859;DHT22;35426;30.698;104.050;2023-03-03T02:10:38;19.70;99.90
17859;DHT22;35426;30.698;104.050;2023-03-03T02:13:16;19.70;99.90
17859;DHT22;35426;30.698;104.050;2023-03-03T02:15:52;19.80;99.90
17859;DHT22;35426;30.698;104.050;2023-03-03T02:18:33;20.60;99.90
17859;DHT22;35426;30.698;104.050;2023-03-03T02:21:11;20.80;99.90
17859;DHT22;35426;30.698;104.050;2023-03-03T02:23:54;20.60;99.90
17859;DHT22;35426;30.698;104.050;2023-03-03T02:26:41;20.70;99.90
17859;DHT22;35426;30.698;104.050;2023-03-03T02:29:20;20.70;99.90
17859;DHT22;35426;30.698;104.050;2023-03-03T02:31:57;20.90;99.90
17859;DHT22;35426;30.698;104.050;2023-03-03T02:34:46;21.10;99.90
17859;DHT22;35426;30.698;104.050;2023-03-03T02:37:22;21.10;99.90
17859;DHT22;35426;30.698;104.050;2023-03-03T02:40:02;20.90;99.90
17859;DHT22;35426;30.698;104.050;2023-03-03T02:42:42;20.90;99.90
17859;DHT22;35426;30.698;104.050;2023-03-03T02:45:21;21.20;99.90
17859;DHT22;35426;30.698;104.050;2023-03-03T02:48:00;21.10;99.90
17859;DHT22;35426;30.698;104.050;2023-03-03T02:50:36;21.20;99.90
17859;DHT22;35426;30.698;104.050;2023-03-03T02:53:14;21.50;99.90
17859;DHT22;35426;30.698;104.050;2023-03-03T02:55:50;21.60;99.90
17859;DHT22;35426;30.698;104.050;2023-03-03T02:58:29;22.10;99.90
17859;DHT22;35426;30.698;104.050;2023-03-03T03:01:06;22.70;99.90
17859;DHT22;35426;30.698;104.050;2023-03-03T03:03:44;22.40;99.90
17859;DHT22;35426;30.698;104.050;2023-03-03T03:06:25;22.70;99.90
17859;DHT22;35426;30.698;104.050;2023-03-03T03:09:04;22.10;99.90
17859;DHT22;35426;30.698;104.050;2023-03-03T03:11:42;22.20;99.90
17859;DHT22;35426;30.698;104.050;2023-03-03T03:14:23;22.50;99.90
17859;DHT22;35426;30.698;104.050;2023-03-03T03:16:59;22.50;99.90
17859;DHT22;35426;30.698;104.050;2023-03-03T03:19:40;22.20;99.90
17859;DHT22;35426;30.698;104.050;2023-03-03T03:22:16;21.90;99.90
17859;DHT22;35426;30.698;104.050;2023-03-03T03:24:53;22.20;99.90
17859;DHT22;35426;30.698;104.050;2023-03-03T03:27:34;22.00;99.90
17859;DHT22;35426;30.698;104.050;2023-03-03T03:30:14;22.30;99.90
17859;DHT22;35426;30.698;104.050;2023-03-03T03:32:54;22.70;99.90
17859;DHT22;35426;30.698;104.050;2023-03-03T03:35:30;21.10;99.90
17859;DHT22;35426;30.698;104.050;2023-03-03T03:38:06;21.20;99.90
17859;DHT22;35426;30.698;104.050;2023-03-03T03:40:45;21.80;99.90
17859;DHT22;35426;30.698;104.050;2023-03-03T03:43:21;21.90;99.90
17859;DHT22;35426;30.698;104.050;2023-03-03T03:46:00;22.30;99.90
17859;DHT22;35426;30.698;104.050;2023-03-03T03:48:39;22.50;99.90
17859;DHT22;35426;30.698;104.050;2023-03-03T03:51:17;22.40;99.90
17859;DHT22;35426;30.698;104.050;2023-03-03T03:53:53;22.00;99.90
17859;DHT22;35426;30.698;104.050;2023-03-03T03:56:30;21.90;99.90
17859;DHT22;35426;30.698;104.050;2023-03-03T03:59:14;21.70;99.90
17859;DHT22;35426;30.698;104.050;2023-03-03T04:01:58;21.50;99.90
17859;DHT22;35426;30.698;104.050;2023-03-03T04:04:35;21.70;99.90
17859;DHT22;35426;30.698;104.050;2023-03-03T04:07:17;21.80;99.90
17859;DHT22;35426;30.698;104.050;2023-03-03T04:09:57;21.80;99.90
17859;DHT22;35426;30.698;104.050;2023-03-03T04:12:35;21.50;99.90
17859;DHT22;35426;30.698;104.050;2023-03-03T04:15:19;20.80;99.90
17859;DHT22;35426;30.698;104.050;2023-03-03T04:18:01;21.00;99.90
17859;DHT22;35426;30.698;104.050;2023-03-03T04:20:43;21.20;99.90
17859;DHT22;35426;30.698;104.050;2023-03-03T04:23:20;20.50;99.90
17859;DHT22;35426;30.698;104.050;2023-03-03T04:26:03;20.20;99.90
17859;DHT22;35426;30.698;104.050;2023-03-03T04:28:43;20.10;99.90
17859;DHT22;35426;30.698;104.050;2023-03-03T04:31:24;20.20;99.90
17859;DHT22;35426;30.698;104.050;2023-03-03T04:34:15;20.20;99.90
17859;DHT22;35426;30.698;104.050;2023-03-03T04:37:06;20.40;99.90
17859;DHT22;35426;30.698;104.050;2023-03-03T04:39:48;20.40;99.90
17859;DHT22;35426;30.698;104.050;2023-03-03T04:42:33;20.00;99.90
17859;DHT22;35426;30.698;104.050;2023-03-03T04:45:13;20.30;99.90
17859;DHT22;35426;30.698;104.050;2023-03-03T04:47:55;20.40;99.90
17859;DHT22;35426;30.698;104.050;2023-03-03T04:50:42;20.30;99.90
17859;DHT22;35426;30.698;104.050;2023-03-03T04:53:22;20.30;99.90
17859;DHT22;35426;30.698;104.050;2023-03-03T04:55:59;19.90;99.90
17859;DHT22;35426;30.698;104.050;2023-03-03T04:58:41;19.70;99.90
17859;DHT22;35426;30.698;104.050;2023-03-03T05:01:18;19.60;99.90
17859;DHT22;35426;30.698;104.050;2023-03-03T05:03:54;19.90;99.90
17859;DHT22;35426;30.698;104.050;2023-03-03T05:06:36;19.80;99.90
17859;DHT22;35426;30.698;104.050;2023-03-03T05:09:20;20.00;99.90
17859;DHT22;35426;30.698;104.050;2023-03-03T05:11:56;19.60;99.90
17859;DHT22;35426;30.698;104.050;2023-03-03T05:14:38;19.70;99.90
17859;DHT22;35426;30.698;104.050;2023-03-03T05:17:15;19.70;99.90
17859;DHT22;35426;30.698;104.050;2023-03-03T05:19:53;19.60;99.90
17859;DHT22;35426;30.698;104.050;2023-03-03T05:22:33;19.50;99.90
17859;DHT22;35426;30.698;104.050;2023-03-03T05:25:11;19.40;99.90
17859;DHT22;35426;30.698;104.050;2023-03-03T05:27:52;19.30;99.90
17859;DHT22;35426;30.698;104.050;2023-03-03T05:30:29;19.30;99.90
17859;DHT22;35426;30.698;104.050;2023-03-03T05:33:05;19.60;99.90
17859;DHT22;35426;30.698;104.050;2023-03-03T05:35:41;19.60;99.90
17859;DHT22;35426;30.698;104.050;2023-03-03T05:38:24;19.80;99.90
17859;DHT22;35426;30.698;104.050;2023-03-03T05:41:00;19.60;99.90
17859;DHT22;35426;30.698;104.050;2023-03-03T05:43:37;19.80;99.90
17859;DHT22;35426;30.698;104.050;2023-03-03T05:46:16;19.80;99.90
17859;DHT22;35426;30.698;104.050;2023-03-03T05:48:53;19.70;99.90
17859;DHT22;35426;30.698;104.050;2023-03-03T05:51:30;19.70;99.90
17859;DHT22;35426;30.698;104.050;2023-03-03T05:54:13;19.70;99.90
17859;DHT22;35426;30.698;104.050;2023-03-03T05:56:49;19.50;99.90
17859;DHT22;35426;30.698;104.050;2023-03-03T05:59:28;19.50;99.90
17859;DHT22;35426;30.698;104.050;2023-03-03T06:02:05;19.50;99.90
17859;DHT22;35426;30.698;104.050;2023-03-03T06:04:44;19.70;99.90
17859;DHT22;35426;30.698;104.050;2023-03-03T06:07:40;19.70;99.90
17859;DHT22;35426;30.698;104.050;2023-03-03T06:10:19;19.90;99.90
17859;DHT22;35426;30.698;104.050;2023-03-03T06:13:00;19.90;99.90
17859;DHT22;35426;30.698;104.050;2023-03-03T06:15:36;20.10;99.90
17859;DHT22;35426;30.698;104.050;2023-03-03T06:18:17;20.30;99.90
17859;DHT22;35426;30.698;104.050;2023-03-03T06:20:56;20.20;99.90
17859;DHT22;35426;30.698;104.050;2023-03-03T06:23:33;19.90;99.90
17859;DHT22;35426;30.698;104.050;2023-03-03T06:26:13;19.80;99.90
17859;DHT22;35426;30.698;104.050;2023-03-03T06:28:50;20.10;99.90
17859;DHT22;35426;30.698;104.050;2023-03-03T06:31:28;20.10;99.90
17859;DHT22;35426;30.698;104.050;2023-03-03T06:34:04;19.90;99.90
17859;DHT22;35426;30.698;104.050;2023-03-03T06:36:43;19.90;99.90
17859;DHT22;35426;30.698;104.050;2023-03-03T06:39:19;20.00;99.90
17859;DHT22;35426;30.698;104.050;2023-03-03T06:41:59;20.20;99.90
17859;DHT22;35426;30.698;104.050;2023-03-03T06:44:39;20.10;99.90
17859;DHT22;35426;30.698;104.050;2023-03-03T06:47:17;20.30;99.90
17859;DHT22;35426;30.698;104.050;2023-03-03T06:49:58;20.30;99.90
17859;DHT22;35426;30.698;104.050;2023-03-03T06:52:38;20.40;99.90
17859;DHT22;35426;30.698;104.050;2023-03-03T06:55:20;20.40;99.90
17859;DHT22;35426;30.698;104.050;2023-03-03T06:58:08;20.30;99.90
17859;DHT22;35426;30.698;104.050;2023-03-03T07:00:48;20.10;99.90
17859;DHT22;35426;30.698;104.050;2023-03-03T07:03:30;20.10;99.90
17859;DHT22;35426;30.698;104.050;2023-03-03T07:06:18;19.90;99.90
17859;DHT22;35426;30.698;104.050;2023-03-03T07:08:57;19.90;99.90
17859;DHT22;35426;30.698;104.050;2023-03-03T07:11:34;19.80;99.90
17859;DHT22;35426;30.698;104.050;2023-03-03T07:14:19;19.80;99.90
17859;DHT22;35426;30.698;104.050;2023-03-03T07:16:58;19.80;99.90
17859;DHT22;35426;30.698;104.050;2023-03-03T07:19:37;19.80;99.90
17859;DHT22;35426;30.698;104.050;2023-03-03T07:22:17;19.50;99.90
17859;DHT22;35426;30.698;104.050;2023-03-03T07:24:56;19.70;99.90
17859;DHT22;35426;30.698;104.050;2023-03-03T07:27:34;19.80;99.90
17859;DHT22;35426;30.698;104.050;2023-03-03T07:30:27;19.90;99.90
17859;DHT22;35426;30.698;104.050;2023-03-03T07:33:21;19.90;99.90
17859;DHT22;35426;30.698;104.050;2023-03-03T07:36:01;19.90;99.90
17859;DHT22;35426;30.698;104.050;2023-03-03T07:38:41;19.90;99.90
17859;DHT22;35426;30.698;104.050;2023-03-03T07:41:22;19.90;99.90
17859;DHT22;35426;30.698;104.050;2023-03-03T07:44:02;20.10;99.90
17859;DHT22;35426;30.698;104.050;2023-03-03T07:46:46;20.40;99.90
17859;DHT22;35426;30.698;104.050;2023-03-03T07:49:28;20.40;99.90
17859;DHT22;35426;30.698;104.050;2023-03-03T07:52:24;20.50;99.90
17859;DHT22;35426;30.698;104.050;2023-03-03T07:55:01;20.70;99.90
17859;DHT22;35426;30.698;104.050;2023-03-03T07:57:55;20.40;99.90
17859;DHT22;35426;30.698;104.050;2023-03-03T08:03:50;20.40;99.90
17859;DHT22;35426;30.698;104.050;2023-03-03T08:06:54;20.50;99.90
17859;DHT22;35426;30.698;104.050;2023-03-03T08:09:40;20.50;99.90
17859;DHT22;35426;30.698;104.050;2023-03-03T08:12:33;20.40;99.90
17859;DHT22;35426;30.698;104.050;2023-03-03T08:15:23;20.40;99.90
17859;DHT22;35426;30.698;104.050;2023-03-03T08:18:07;20.30;99.90
17859;DHT22;35426;30.698;104.050;2023-03-03T08:21:05;20.40;99.90
17859;DHT22;35426;30.698;104.050;2023-03-03T08:23:44;20.20;99.90
17859;DHT22;35426;30.698;104.050;2023-03-03T08:26:28;20.10;99.90
17859;DHT22;35426;30.698;104.050;2023-03-03T08:29:12;20.00;99.90
17859;DHT22;35426;30.698;104.050;2023-03-03T08:31:52;20.30;99.90
17859;DHT22;35426;30.698;104.050;2023-03-03T08:34:34;20.50;99.90
17859;DHT22;35426;30.698;104.050;2023-03-03T08:37:18;20.50;99.90
17859;DHT22;35426;30.698;104.050;2023-03-03T08:40:01;20.30;99.90
17859;DHT22;35426;30.698;104.050;2023-03-03T08:42:42;20.30;99.90
17859;DHT22;35426;30.698;104.050;2023-03-03T08:45:19;20.50;99.90
17859;DHT22;35426;30.698;104.050;2023-03-03T08:47:59;20.40;99.90
17859;DHT22;35426;30.698;104.050;2023-03-03T08:50:43;20.50;99.90
17859;DHT22;35426;30.698;104.050;2023-03-03T08:53:34;20.60;99.90
17859;DHT22;35426;30.698;104.050;2023-03-03T08:56:11;20.40;99.90
17859;DHT22;35426;30.698;104.050;2023-03-03T08:58:51;20.30;99.90
17859;DHT22;35426;30.698;104.050;2023-03-03T09:01:34;20.30;99.90
17859;DHT22;35426;30.698;104.050;2023-03-03T09:04:18;20.30;99.90
17859;DHT22;35426;30.698;104.050;2023-03-03T09:06:55;20.30;99.90
17859;DHT22;35426;30.698;104.050;2023-03-03T09:09:34;20.20;99.90
17859;DHT22;35426;30.698;104.050;2023-03-03T09:12:16;20.10;99.90
17859;DHT22;35426;30.698;104.050;2023-03-03T09:14:54;20.10;99.90
17859;DHT22;35426;30.698;104.050;2023-03-03T09:17:33;20.20;99.90
17859;DHT22;35426;30.698;104.050;2023-03-03T09:20:23;20.10;99.90
17859;DHT22;35426;30.698;104.050;2023-03-03T09:23:37;20.00;99.90
17859;DHT22;35426;30.698;104.050;2023-03-03T09:26:31;20.00;99.90
17859;DHT22;35426;30.698;104.050;2023-03-03T09:29:24;20.10;99.90
17859;DHT22;35426;30.698;104.050;2023-03-03T09:32:06;20.10;99.90
17859;DHT22;35426;30.698;104.050;2023-03-03T09:34:48;19.90;99.90
17859;DHT22;35426;30.698;104.050;2023-03-03T09:37:26;19.90;99.90
17859;DHT22;35426;30.698;104.050;2023-03-03T09:40:18;19.90;99.90
17859;DHT22;35426;30.698;104.050;2023-03-03T09:43:12;20.00;99.90
17859;DHT22;35426;30.698;104.050;2023-03-03T09:46:01;20.00;99.90
17859;DHT22;35426;30.698;104.050;2023-03-03T09:48:50;19.90;99.90
17859;DHT22;35426;30.698;104.050;2023-03-03T09:51:54;19.90;99.90
17859;DHT22;35426;30.698;104.050;2023-03-03T09:54:41;19.80;99.90
17859;DHT22;35426;30.698;104.050;2023-03-03T09:57:25;19.80;99.90
17859;DHT22;35426;30.698;104.050;2023-03-03T10:00:38;19.80;99.90
17859;DHT22;35426;30.698;104.050;2023-03-03T10:03:50;19.70;99.90
17859;DHT22;35426;30.698;104.050;2023-03-03T10:06:32;19.70;99.90
17859;DHT22;35426;30.698;104.050;2023-03-03T10:12:39;19.70;99.90
17859;DHT22;35426;30.698;104.050;2023-03-03T10:15:31;19.60;99.90
17859;DHT22;35426;30.698;104.050;2023-03-03T10:18:28;19.50;99.90
17859;DHT22;35426;30.698;104.050;2023-03-03T10:21:14;19.40;99.90
17859;DHT22;35426;30.698;104.050;2023-03-03T10:23:56;19.30;99.90
17859;DHT22;35426;30.698;104.050;2023-03-03T10:27:02;19.30;99.90
17859;DHT22;35426;30.698;104.050;2023-03-03T10:29:56;19.30;99.90
17859;DHT22;35426;30.698;104.050;2023-03-03T10:32:48;19.20;99.90
17859;DHT22;35426;30.698;104.050;2023-03-03T10:35:52;19.10;99.90
17859;DHT22;35426;30.698;104.050;2023-03-03T10:38:49;19.00;99.90
17859;DHT22;35426;30.698;104.050;2023-03-03T10:41:50;19.00;99.90
17859;DHT22;35426;30.698;104.050;2023-03-03T10:48:00;18.80;99.90
17859;DHT22;35426;30.698;104.050;2023-03-03T10:50:53;18.70;99.90
17859;DHT22;35426;30.698;104.050;2023-03-03T10:53:38;18.60;99.90
17859;DHT22;35426;30.698;104.050;2023-03-03T10:56:32;18.70;99.90
17859;DHT22;35426;30.698;104.050;2023-03-03T10:59:38;18.60;99.90
17859;DHT22;35426;30.698;104.050;2023-03-03T11:02:30;18.50;99.90
17859;DHT22;35426;30.698;104.050;2023-03-03T11:05:27;18.50;99.90
17859;DHT22;35426;30.698;104.050;2023-03-03T11:08:12;18.40;99.90
17859;DHT22;35426;30.698;104.050;2023-03-03T11:10:57;18.40;99.90
17859;DHT22;35426;30.698;104.050;2023-03-03T11:13:46;18.30;99.90
17859;DHT22;35426;30.698;104.050;2023-03-03T11:16:46;18.30;99.90
17859;DHT22;35426;30.698;104.050;2023-03-03T11:19:42;18.20;99.90
17859;DHT22;35426;30.698;104.050;2023-03-03T11:22:38;18.20;99.90
17859;DHT22;35426;30.698;104.050;2023-03-03T11:25:34;18.10;99.90
17859;DHT22;35426;30.698;104.050;2023-03-03T11:28:27;18.10;99.90
17859;DHT22;35426;30.698;104.050;2023-03-03T11:31:16;18.10;99.90
17859;DHT22;35426;30.698;104.050;2023-03-03T11:34:08;18.00;99.90
17859;DHT22;35426;30.698;104.050;2023-03-03T11:36:56;18.00;99.90
17859;DHT22;35426;30.698;104.050;2023-03-03T11:39:40;18.00;99.90
17859;DHT22;35426;30.698;104.050;2023-03-03T11:42:27;18.00;99.90
17859;DHT22;35426;30.698;104.050;2023-03-03T11:45:14;17.90;99.90
17859;DHT22;35426;30.698;104.050;2023-03-03T11:47:59;17.90;99.90
17859;DHT22;35426;30.698;104.050;2023-03-03T11:50:45;17.90;99.90
17859;DHT22;35426;30.698;104.050;2023-03-03T11:53:49;17.90;99.90
17859;DHT22;35426;30.698;104.050;2023-03-03T11:56:49;17.90;99.90
17859;DHT22;35426;30.698;104.050;2023-03-03T11:59:54;17.80;99.90
17859;DHT22;35426;30.698;104.050;2023-03-03T12:03:01;17.80;99.90
17859;DHT22;35426;30.698;104.050;2023-03-03T12:05:51;17.80;99.90
17859;DHT22;35426;30.698;104.050;2023-03-03T12:08:59;17.70;99.90
17859;DHT22;35426;30.698;104.050;2023-03-03T12:11:50;17.70;99.90
17859;DHT22;35426;30.698;104.050;2023-03-03T12:14:51;17.60;99.90
17859;DHT22;35426;30.698;104.050;2023-03-03T12:18:20;17.60;99.90
17859;DHT22;35426;30.698;104.050;2023-03-03T12:21:14;17.60;99.90
17859;DHT22;35426;30.698;104.050;2023-03-03T12:24:23;17.60;99.90
17859;DHT22;35426;30.698;104.050;2023-03-03T12:27:14;17.50;99.90
17859;DHT22;35426;30.698;104.050;2023-03-03T12:30:04;17.40;99.90
17859;DHT22;35426;30.698;104.050;2023-03-03T12:36:04;17.40;99.90
17859;DHT22;35426;30.698;104.050;2023-03-03T12:38:58;17.30;99.90
17859;DHT22;35426;30.698;104.050;2023-03-03T12:41:49;17.30;99.90
17859;DHT22;35426;30.698;104.050;2023-03-03T12:44:39;17.30;99.90
17859;DHT22;35426;30.698;104.050;2023-03-03T12:47:26;17.30;99.90
17859;DHT22;35426;30.698;104.050;2023-03-03T12:50:26;17.20;99.90
17859;DHT22;35426;30.698;104.050;2023-03-03T12:53:17;17.20;99.90
17859;DHT22;35426;30.698;104.050;2023-03-03T12:56:03;17.10;99.90
17859;DHT22;35426;30.698;104.050;2023-03-03T12:58:46;17.10;99.90
17859;DHT22;35426;30.698;104.050;2023-03-03T13:01:36;17.00;99.90
17859;DHT22;35426;30.698;104.050;2023-03-03T13:04:32;17.00;99.90
17859;DHT22;35426;30.698;104.050;2023-03-03T13:07:32;17.00;99.90
17859;DHT22;35426;30.698;104.050;2023-03-03T13:10:23;17.00;99.90
17859;DHT22;35426;30.698;104.050;2023-03-03T13:13:16;16.90;99.90
17859;DHT22;35426;30.698;104.050;2023-03-03T13:16:01;17.00;99.90
17859;DHT22;35426;30.698;104.050;2023-03-03T13:18:48;16.80;99.90
17859;DHT22;35426;30.698;104.050;2023-03-03T13:21:38;16.90;99.90
17859;DHT22;35426;30.698;104.050;2023-03-03T13:24:28;16.90;99.90
17859;DHT22;35426;30.698;104.050;2023-03-03T13:27:15;17.00;99.90
17859;DHT22;35426;30.698;104.050;2023-03-03T13:30:03;17.00;99.90
17859;DHT22;35426;30.698;104.050;2023-03-03T13:32:55;17.00;99.90
17859;DHT22;35426;30.698;104.050;2023-03-03T13:35:47;16.90;99.90
17859;DHT22;35426;30.698;104.050;2023-03-03T13:38:29;16.90;99.90
17859;DHT22;35426;30.698;104.050;2023-03-03T13:41:20;16.80;99.90
17859;DHT22;35426;30.698;104.050;2023-03-03T13:44:08;16.80;99.90
17859;DHT22;35426;30.698;104.050;2023-03-03T13:46:59;16.80;99.90
17859;DHT22;35426;30.698;104.050;2023-03-03T13:50:01;16.80;99.90
17859;DHT22;35426;30.698;104.050;2023-03-03T13:52:56;16.80;99.90
17859;DHT22;35426;30.698;104.050;2023-03-03T13:55:47;16.80;99.90
17859;DHT22;35426;30.698;104.050;2023-03-03T13:58:45;16.80;99.90
17859;DHT22;35426;30.698;104.050;2023-03-03T14:01:33;16.80;99.90
17859;DHT22;35426;30.698;104.050;2023-03-03T14:04:26;16.80;99.90
17859;DHT22;35426;30.698;104.050;2023-03-03T14:07:15;16.70;99.90
17859;DHT22;35426;30.698;104.050;2023-03-03T14:10:01;16.70;99.90
17859;DHT22;35426;30.698;104.050;2023-03-03T14:12:46;16.60;99.90
17859;DHT22;35426;30.698;104.050;2023-03-03T14:15:34;16.70;99.90
17859;DHT22;35426;30.698;104.050;2023-03-03T14:18:27;16.70;99.90
17859;DHT22;35426;30.698;104.050;2023-03-03T14:21:18;16.70;99.90
17859;DHT22;35426;30.698;104.050;2023-03-03T14:24:00;16.50;99.90
17859;DHT22;35426;30.698;104.050;2023-03-03T14:26:50;16.40;99.90
17859;DHT22;35426;30.698;104.050;2023-03-03T14:29:34;16.40;99.90
17859;DHT22;35426;30.698;104.050;2023-03-03T14:32:27;16.40;99.90
17859;DHT22;35426;30.698;104.050;2023-03-03T14:35:19;16.40;99.90
17859;DHT22;35426;30.698;104.050;2023-03-03T14:38:04;16.40;99.90
17859;DHT22;35426;30.698;104.050;2023-03-03T14:40:45;16.30;99.90
17859;DHT22;35426;30.698;104.050;2023-03-03T14:43:25;16.20;99.90
17859;DHT22;35426;30.698;104.050;2023-03-03T14:49:34;16.20;99.90
17859;DHT22;35426;30.698;104.050;2023-03-03T14:52:28;16.20;99.90
17859;DHT22;35426;30.698;104.050;2023-03-03T14:55:32;16.20;99.90
17859;DHT22;35426;30.698;104.050;2023-03-03T14:58:31;16.20;99.90
17859;DHT22;35426;30.698;104.050;2023-03-03T15:01:15;16.20;99.90
17859;DHT22;35426;30.698;104.050;2023-03-03T15:04:01;16.10;99.90
17859;DHT22;35426;30.698;104.050;2023-03-03T15:06:48;16.10;99.90
17859;DHT22;35426;30.698;104.050;2023-03-03T15:09:33;16.10;99.90
17859;DHT22;35426;30.698;104.050;2023-03-03T15:12:28;16.10;99.90
17859;DHT22;35426;30.698;104.050;2023-03-03T15:15:21;16.10;99.90
17859;DHT22;35426;30.698;104.050;2023-03-03T15:18:12;16.20;99.90
17859;DHT22;35426;30.698;104.050;2023-03-03T15:21:00;16.20;99.90
17859;DHT22;35426;30.698;104.050;2023-03-03T15:23:54;16.20;99.90
17859;DHT22;35426;30.698;104.050;2023-03-03T15:26:42;16.10;99.90
17859;DHT22;35426;30.698;104.050;2023-03-03T15:29:34;16.10;99.90
17859;DHT22;35426;30.698;104.050;2023-03-03T15:32:23;16.00;99.90
17859;DHT22;35426;30.698;104.050;2023-03-03T15:35:17;16.00;99.90
17859;DHT22;35426;30.698;104.050;2023-03-03T15:38:07;16.00;99.90
17859;DHT22;35426;30.698;104.050;2023-03-03T15:41:10;16.00;99.90
17859;DHT22;35426;30.698;104.050;2023-03-03T15:44:20;15.90;99.90
17859;DHT22;35426;30.698;104.050;2023-03-03T15:50:24;15.90;99.90
17859;DHT22;35426;30.698;104.050;2023-03-03T15:53:13;15.80;99.90
17859;DHT22;35426;30.698;104.050;2023-03-03T15:56:17;15.80;99.90
17859;DHT22;35426;30.698;104.050;2023-03-03T16:02:18;15.80;99.90
17859;DHT22;35426;30.698;104.050;2023-03-03T16:05:07;15.80;99.90
17859;DHT22;35426;30.698;104.050;2023-03-03T16:07:58;15.80;99.90
17859;DHT22;35426;30.698;104.050;2023-03-03T16:10:49;15.60;99.90
17859;DHT22;35426;30.698;104.050;2023-03-03T16:13:46;15.60;99.90
17859;DHT22;35426;30.698;104.050;2023-03-03T16:16:35;15.60;99.90
17859;DHT22;35426;30.698;104.050;2023-03-03T16:19:25;15.60;99.90
17859;DHT22;35426;30.698;104.050;2023-03-03T16:22:23;15.60;99.90
17859;DHT22;35426;30.698;104.050;2023-03-03T16:25:14;15.50;99.90
17859;DHT22;35426;30.698;104.050;2023-03-03T16:28:03;15.50;99.90
17859;DHT22;35426;30.698;104.050;2023-03-03T16:30:55;15.50;99.90
17859;DHT22;35426;30.698;104.050;2023-03-03T16:33:40;15.50;99.90
17859;DHT22;35426;30.698;104.050;2023-03-03T16:36:29;15.50;99.90
17859;DHT22;35426;30.698;104.050;2023-03-03T16:39:11;15.30;99.90
17859;DHT22;35426;30.698;104.050;2023-03-03T16:41:58;15.30;99.90
17859;DHT22;35426;30.698;104.050;2023-03-03T16:44:44;15.20;99.90
17859;DHT22;35426;30.698;104.050;2023-03-03T16:47:47;15.10;99.90
17859;DHT22;35426;30.698;104.050;2023-03-03T16:50:36;15.10;99.90
17859;DHT22;35426;30.698;104.050;2023-03-03T16:53:22;15.00;99.90
17859;DHT22;35426;30.698;104.050;2023-03-03T16:56:07;14.90;99.90
17859;DHT22;35426;30.698;104.050;2023-03-03T16:59:05;14.90;99.90
17859;DHT22;35426;30.698;104.050;2023-03-03T17:01:52;14.90;99.90
17859;DHT22;35426;30.698;104.050;2023-03-03T17:04:42;14.90;99.90
17859;DHT22;35426;30.698;104.050;2023-03-03T17:07:41;14.90;99.90
17859;DHT22;35426;30.698;104.050;2023-03-03T17:10:24;14.90;99.90
17859;DHT22;35426;30.698;104.050;2023-03-03T17:13:11;14.90;99.90
17859;DHT22;35426;30.698;104.050;2023-03-03T17:15:58;14.80;99.90
17859;DHT22;35426;30.698;104.050;2023-03-03T17:18:54;14.90;99.90